Terminal Aerodrome Forecast
Issued by NWS

Home | Current Version | Previous Version | Text Only | Print | Product List | Glossary Off
Versions: 1 2 3 4 5 6 7 8 9 10 11 12 13 14

000
FTUS43 KMPX 031910 AAA
TAFRWF
TAF AMD
KRWF 031910Z 0319/0418 32025G35KT 5SM BLSN BKN020
      TEMPO 0319/0322 2SM BLSN
     FM040100 31016G25KT P6SM SKC
     FM040700 30012KT P6SM SKC=

USA.gov is the U.S. government's official web portal to all federal, state and local government web resources and services.